sensor_id;sensor_type;location;lat;lon;timestamp;temperature;humidity
7216;DHT22;3649;48.798;9.798;2022-08-02T00:00:51;23.90;99.90
7216;DHT22;3649;48.798;9.798;2022-08-02T00:03:22;23.90;99.90
7216;DHT22;3649;48.798;9.798;2022-08-02T00:05:50;23.90;99.90
7216;DHT22;3649;48.798;9.798;2022-08-02T00:08:19;24.00;99.90
7216;DHT22;3649;48.798;9.798;2022-08-02T00:10:46;24.10;99.90
7216;DHT22;3649;48.798;9.798;2022-08-02T00:13:13;24.00;99.90
7216;DHT22;3649;48.798;9.798;2022-08-02T00:15:40;24.00;99.90
7216;DHT22;3649;48.798;9.798;2022-08-02T00:18:07;24.00;99.90
7216;DHT22;3649;48.798;9.798;2022-08-02T00:20:34;23.90;99.90
7216;DHT22;3649;48.798;9.798;2022-08-02T00:23:01;23.80;99.90
7216;DHT22;3649;48.798;9.798;2022-08-02T00:25:28;23.90;99.90
7216;DHT22;3649;48.798;9.798;2022-08-02T00:27:55;23.90;99.90
7216;DHT22;3649;48.798;9.798;2022-08-02T00:30:22;23.80;99.90
7216;DHT22;3649;48.798;9.798;2022-08-02T00:32:48;23.80;99.90
7216;DHT22;3649;48.798;9.798;2022-08-02T00:35:15;23.80;99.90
7216;DHT22;3649;48.798;9.798;2022-08-02T00:37:42;23.80;99.90
7216;DHT22;3649;48.798;9.798;2022-08-02T00:40:10;23.70;99.90
7216;DHT22;3649;48.798;9.798;2022-08-02T00:42:38;23.70;99.90
7216;DHT22;3649;48.798;9.798;2022-08-02T00:45:06;23.70;99.90
7216;DHT22;3649;48.798;9.798;2022-08-02T00:47:33;23.80;99.90
7216;DHT22;3649;48.798;9.798;2022-08-02T00:50:00;23.70;99.90
7216;DHT22;3649;48.798;9.798;2022-08-02T00:52:27;23.70;99.90
7216;DHT22;3649;48.798;9.798;2022-08-02T00:54:54;23.70;99.90
7216;DHT22;3649;48.798;9.798;2022-08-02T00:57:21;23.70;99.90
7216;DHT22;3649;48.798;9.798;2022-08-02T00:59:48;23.70;99.90
7216;DHT22;3649;48.798;9.798;2022-08-02T01:02:15;23.70;99.90
7216;DHT22;3649;48.798;9.798;2022-08-02T01:04:42;23.60;99.90
7216;DHT22;3649;48.798;9.798;2022-08-02T01:07:12;23.50;99.90
7216;DHT22;3649;48.798;9.798;2022-08-02T01:09:44;23.40;99.90
7216;DHT22;3649;48.798;9.798;2022-08-02T01:12:12;23.40;99.90
7216;DHT22;3649;48.798;9.798;2022-08-02T01:14:41;23.40;99.90
7216;DHT22;3649;48.798;9.798;2022-08-02T01:31:03;23.30;99.90
7216;DHT22;3649;48.798;9.798;2022-08-02T01:33:36;23.30;99.90
7216;DHT22;3649;48.798;9.798;2022-08-02T01:36:10;23.30;99.90
7216;DHT22;3649;48.798;9.798;2022-08-02T01:38:42;23.20;99.90
7216;DHT22;3649;48.798;9.798;2022-08-02T01:41:18;23.20;99.90
7216;DHT22;3649;48.798;9.798;2022-08-02T01:43:47;23.20;99.90
7216;DHT22;3649;48.798;9.798;2022-08-02T01:46:15;23.20;99.90
7216;DHT22;3649;48.798;9.798;2022-08-02T01:48:44;23.20;99.90
7216;DHT22;3649;48.798;9.798;2022-08-02T01:51:16;23.10;99.90
7216;DHT22;3649;48.798;9.798;2022-08-02T01:53:47;23.10;99.90
7216;DHT22;3649;48.798;9.798;2022-08-02T01:56:16;23.10;99.90
7216;DHT22;3649;48.798;9.798;2022-08-02T01:58:46;23.00;99.90
7216;DHT22;3649;48.798;9.798;2022-08-02T02:01:14;23.10;99.90
7216;DHT22;3649;48.798;9.798;2022-08-02T02:03:44;23.10;99.90
7216;DHT22;3649;48.798;9.798;2022-08-02T02:06:14;23.10;99.90
7216;DHT22;3649;48.798;9.798;2022-08-02T02:08:42;23.20;99.90
7216;DHT22;3649;48.798;9.798;2022-08-02T02:11:10;23.20;99.90
7216;DHT22;3649;48.798;9.798;2022-08-02T02:13:58;23.10;99.90
7216;DHT22;3649;48.798;9.798;2022-08-02T02:16:27;23.00;99.90
7216;DHT22;3649;48.798;9.798;2022-08-02T02:18:56;23.00;99.90
7216;DHT22;3649;48.798;9.798;2022-08-02T02:21:25;23.00;99.90
7216;DHT22;3649;48.798;9.798;2022-08-02T02:23:52;22.90;99.90
7216;DHT22;3649;48.798;9.798;2022-08-02T02:26:19;22.90;99.90
7216;DHT22;3649;48.798;9.798;2022-08-02T02:29:00;22.90;99.90
7216;DHT22;3649;48.798;9.798;2022-08-02T02:31:31;22.80;99.90
7216;DHT22;3649;48.798;9.798;2022-08-02T02:34:03;22.80;99.90
7216;DHT22;3649;48.798;9.798;2022-08-02T02:36:32;22.80;99.90
7216;DHT22;3649;48.798;9.798;2022-08-02T02:39:03;22.90;99.90
7216;DHT22;3649;48.798;9.798;2022-08-02T02:41:40;23.00;99.90
7216;DHT22;3649;48.798;9.798;2022-08-02T02:44:12;23.00;99.90
7216;DHT22;3649;48.798;9.798;2022-08-02T02:46:39;23.00;99.90
7216;DHT22;3649;48.798;9.798;2022-08-02T02:49:09;23.00;99.90
7216;DHT22;3649;48.798;9.798;2022-08-02T02:51:39;22.90;99.90
7216;DHT22;3649;48.798;9.798;2022-08-02T02:54:11;22.80;99.90
7216;DHT22;3649;48.798;9.798;2022-08-02T02:56:59;22.70;99.90
7216;DHT22;3649;48.798;9.798;2022-08-02T02:59:27;22.70;99.90
7216;DHT22;3649;48.798;9.798;2022-08-02T03:01:54;22.70;99.90
7216;DHT22;3649;48.798;9.798;2022-08-02T03:04:26;22.70;99.90
7216;DHT22;3649;48.798;9.798;2022-08-02T03:07:13;22.80;99.90
7216;DHT22;3649;48.798;9.798;2022-08-02T03:09:40;22.70;99.90
7216;DHT22;3649;48.798;9.798;2022-08-02T03:12:08;22.70;99.90
7216;DHT22;3649;48.798;9.798;2022-08-02T03:14:41;22.70;99.90
7216;DHT22;3649;48.798;9.798;2022-08-02T03:17:09;22.60;99.90
7216;DHT22;3649;48.798;9.798;2022-08-02T03:19:36;22.60;99.90
7216;DHT22;3649;48.798;9.798;2022-08-02T03:22:03;22.60;99.90
7216;DHT22;3649;48.798;9.798;2022-08-02T03:24:30;22.50;99.90
7216;DHT22;3649;48.798;9.798;2022-08-02T03:26:57;22.50;99.90
7216;DHT22;3649;48.798;9.798;2022-08-02T03:29:24;22.60;99.90
7216;DHT22;3649;48.798;9.798;2022-08-02T03:31:51;22.50;99.90
7216;DHT22;3649;48.798;9.798;2022-08-02T03:34:19;22.50;99.90
7216;DHT22;3649;48.798;9.798;2022-08-02T03:36:49;22.50;99.90
7216;DHT22;3649;48.798;9.798;2022-08-02T03:39:18;22.50;99.90
7216;DHT22;3649;48.798;9.798;2022-08-02T03:41:47;22.50;99.90
7216;DHT22;3649;48.798;9.798;2022-08-02T03:44:15;22.50;99.90
7216;DHT22;3649;48.798;9.798;2022-08-02T03:46:43;22.50;99.90
7216;DHT22;3649;48.798;9.798;2022-08-02T03:49:10;22.50;99.90
7216;DHT22;3649;48.798;9.798;2022-08-02T03:51:42;22.50;99.90
7216;DHT22;3649;48.798;9.798;2022-08-02T03:54:10;22.60;99.90
7216;DHT22;3649;48.798;9.798;2022-08-02T03:56:38;22.50;99.90
7216;DHT22;3649;48.798;9.798;2022-08-02T03:59:09;22.60;99.90
7216;DHT22;3649;48.798;9.798;2022-08-02T04:01:37;22.60;99.90
7216;DHT22;3649;48.798;9.798;2022-08-02T04:04:05;22.50;99.90
7216;DHT22;3649;48.798;9.798;2022-08-02T04:06:32;22.50;99.90
7216;DHT22;3649;48.798;9.798;2022-08-02T04:09:00;22.50;99.90
7216;DHT22;3649;48.798;9.798;2022-08-02T04:11:27;22.50;99.90
7216;DHT22;3649;48.798;9.798;2022-08-02T04:14:08;22.60;99.90
7216;DHT22;3649;48.798;9.798;2022-08-02T04:16:40;22.60;99.90
7216;DHT22;3649;48.798;9.798;2022-08-02T04:19:13;22.50;99.90
7216;DHT22;3649;48.798;9.798;2022-08-02T04:21:44;22.50;99.90
7216;DHT22;3649;48.798;9.798;2022-08-02T04:24:22;22.50;99.90
7216;DHT22;3649;48.798;9.798;2022-08-02T04:26:55;22.50;99.90
7216;DHT22;3649;48.798;9.798;2022-08-02T04:29:32;22.50;99.90
7216;DHT22;3649;48.798;9.798;2022-08-02T04:32:02;22.50;99.90
7216;DHT22;3649;48.798;9.798;2022-08-02T04:34:29;22.60;99.90
7216;DHT22;3649;48.798;9.798;2022-08-02T04:36:57;22.50;99.90
7216;DHT22;3649;48.798;9.798;2022-08-02T04:39:25;22.50;99.90
7216;DHT22;3649;48.798;9.798;2022-08-02T04:41:52;22.60;99.90
7216;DHT22;3649;48.798;9.798;2022-08-02T04:44:23;22.50;99.90
7216;DHT22;3649;48.798;9.798;2022-08-02T04:46:51;22.60;99.90
7216;DHT22;3649;48.798;9.798;2022-08-02T04:49:18;22.60;99.90
7216;DHT22;3649;48.798;9.798;2022-08-02T04:51:45;22.60;99.90
7216;DHT22;3649;48.798;9.798;2022-08-02T04:54:12;22.70;99.90
7216;DHT22;3649;48.798;9.798;2022-08-02T04:56:39;22.80;99.90
7216;DHT22;3649;48.798;9.798;2022-08-02T04:59:07;22.90;99.90
7216;DHT22;3649;48.798;9.798;2022-08-02T05:01:34;23.00;99.90
7216;DHT22;3649;48.798;9.798;2022-08-02T05:04:01;22.90;99.90
7216;DHT22;3649;48.798;9.798;2022-08-02T05:06:28;22.80;99.90
7216;DHT22;3649;48.798;9.798;2022-08-02T05:08:55;22.90;99.90
7216;DHT22;3649;48.798;9.798;2022-08-02T05:11:23;22.90;99.90
7216;DHT22;3649;48.798;9.798;2022-08-02T05:14:03;22.90;99.90
7216;DHT22;3649;48.798;9.798;2022-08-02T05:16:31;22.90;99.90
7216;DHT22;3649;48.798;9.798;2022-08-02T05:18:59;23.00;99.90
7216;DHT22;3649;48.798;9.798;2022-08-02T05:21:27;23.10;99.90
7216;DHT22;3649;48.798;9.798;2022-08-02T05:23:53;23.20;99.90
7216;DHT22;3649;48.798;9.798;2022-08-02T05:26:20;23.30;99.90
7216;DHT22;3649;48.798;9.798;2022-08-02T05:28:47;23.30;99.90
7216;DHT22;3649;48.798;9.798;2022-08-02T05:31:14;23.20;99.90
7216;DHT22;3649;48.798;9.798;2022-08-02T05:33:41;23.10;99.90
7216;DHT22;3649;48.798;9.798;2022-08-02T05:36:08;23.10;99.90
7216;DHT22;3649;48.798;9.798;2022-08-02T05:38:36;23.20;99.90
7216;DHT22;3649;48.798;9.798;2022-08-02T05:41:04;23.20;99.90
7216;DHT22;3649;48.798;9.798;2022-08-02T05:43:32;23.20;99.90
7216;DHT22;3649;48.798;9.798;2022-08-02T05:45:59;23.20;99.90
7216;DHT22;3649;48.798;9.798;2022-08-02T05:48:26;23.20;99.90
7216;DHT22;3649;48.798;9.798;2022-08-02T05:51:06;23.30;99.90
7216;DHT22;3649;48.798;9.798;2022-08-02T05:53:36;23.30;99.90
7216;DHT22;3649;48.798;9.798;2022-08-02T05:56:24;23.40;99.90
7216;DHT22;3649;48.798;9.798;2022-08-02T05:59:17;23.40;99.90
7216;DHT22;3649;48.798;9.798;2022-08-02T06:01:47;23.40;99.90
7216;DHT22;3649;48.798;9.798;2022-08-02T06:04:26;23.40;99.90
7216;DHT22;3649;48.798;9.798;2022-08-02T06:07:00;23.50;99.90
7216;DHT22;3649;48.798;9.798;2022-08-02T06:09:28;23.50;99.90
7216;DHT22;3649;48.798;9.798;2022-08-02T06:11:58;23.60;99.90
7216;DHT22;3649;48.798;9.798;2022-08-02T06:14:37;23.60;99.90
7216;DHT22;3649;48.798;9.798;2022-08-02T06:17:05;23.70;99.90
7216;DHT22;3649;48.798;9.798;2022-08-02T06:19:33;23.70;99.90
7216;DHT22;3649;48.798;9.798;2022-08-02T06:22:18;23.70;99.90
7216;DHT22;3649;48.798;9.798;2022-08-02T06:25:03;23.80;99.90
7216;DHT22;3649;48.798;9.798;2022-08-02T06:27:31;23.80;99.90
7216;DHT22;3649;48.798;9.798;2022-08-02T06:30:02;23.90;99.90
7216;DHT22;3649;48.798;9.798;2022-08-02T06:32:31;24.00;99.90
7216;DHT22;3649;48.798;9.798;2022-08-02T06:35:01;24.00;99.90
7216;DHT22;3649;48.798;9.798;2022-08-02T06:45:32;24.00;99.90
7216;DHT22;3649;48.798;9.798;2022-08-02T06:48:00;24.10;99.90
7216;DHT22;3649;48.798;9.798;2022-08-02T06:50:27;24.20;99.90
7216;DHT22;3649;48.798;9.798;2022-08-02T06:53:05;24.20;99.90
7216;DHT22;3649;48.798;9.798;2022-08-02T06:55:32;24.30;99.90
7216;DHT22;3649;48.798;9.798;2022-08-02T06:58:10;24.30;99.90
7216;DHT22;3649;48.798;9.798;2022-08-02T07:00:37;24.40;99.90
7216;DHT22;3649;48.798;9.798;2022-08-02T07:03:04;24.50;99.90
7216;DHT22;3649;48.798;9.798;2022-08-02T07:05:33;24.50;99.90
7216;DHT22;3649;48.798;9.798;2022-08-02T07:08:02;24.70;99.90
7216;DHT22;3649;48.798;9.798;2022-08-02T07:10:29;24.90;99.90
7216;DHT22;3649;48.798;9.798;2022-08-02T07:12:56;25.20;99.90
7216;DHT22;3649;48.798;9.798;2022-08-02T07:15:25;25.30;99.90
7216;DHT22;3649;48.798;9.798;2022-08-02T07:17:52;25.50;99.90
7216;DHT22;3649;48.798;9.798;2022-08-02T07:20:19;25.60;99.90
7216;DHT22;3649;48.798;9.798;2022-08-02T07:22:46;25.70;99.90
7216;DHT22;3649;48.798;9.798;2022-08-02T07:25:14;25.70;99.90
7216;DHT22;3649;48.798;9.798;2022-08-02T07:27:41;25.80;99.90
7216;DHT22;3649;48.798;9.798;2022-08-02T07:30:08;25.80;99.90
7216;DHT22;3649;48.798;9.798;2022-08-02T07:32:36;25.80;99.90
7216;DHT22;3649;48.798;9.798;2022-08-02T07:35:03;25.90;99.90
7216;DHT22;3649;48.798;9.798;2022-08-02T07:37:34;25.90;99.90
7216;DHT22;3649;48.798;9.798;2022-08-02T07:40:22;26.00;99.90
7216;DHT22;3649;48.798;9.798;2022-08-02T07:42:51;26.10;99.90
7216;DHT22;3649;48.798;9.798;2022-08-02T07:45:22;26.30;99.90
7216;DHT22;3649;48.798;9.798;2022-08-02T07:47:49;26.40;99.90
7216;DHT22;3649;48.798;9.798;2022-08-02T07:50:18;26.50;99.90
7216;DHT22;3649;48.798;9.798;2022-08-02T07:52:46;26.60;99.90
7216;DHT22;3649;48.798;9.798;2022-08-02T07:55:14;26.70;99.90
7216;DHT22;3649;48.798;9.798;2022-08-02T07:57:43;26.80;99.90
7216;DHT22;3649;48.798;9.798;2022-08-02T08:00:14;26.80;99.90
7216;DHT22;3649;48.798;9.798;2022-08-02T08:02:42;26.90;99.90
7216;DHT22;3649;48.798;9.798;2022-08-02T08:05:09;27.00;99.90
7216;DHT22;3649;48.798;9.798;2022-08-02T08:07:38;27.00;99.90
7216;DHT22;3649;48.798;9.798;2022-08-02T08:10:05;27.10;99.90
7216;DHT22;3649;48.798;9.798;2022-08-02T08:12:33;27.10;99.90
7216;DHT22;3649;48.798;9.798;2022-08-02T08:15:00;27.20;99.90
7216;DHT22;3649;48.798;9.798;2022-08-02T08:17:27;27.20;99.90
7216;DHT22;3649;48.798;9.798;2022-08-02T08:19:54;27.20;99.90
7216;DHT22;3649;48.798;9.798;2022-08-02T08:22:21;27.10;99.90
7216;DHT22;3649;48.798;9.798;2022-08-02T08:24:48;27.20;99.90
7216;DHT22;3649;48.798;9.798;2022-08-02T08:27:17;27.20;99.90
7216;DHT22;3649;48.798;9.798;2022-08-02T08:29:45;27.20;99.90
7216;DHT22;3649;48.798;9.798;2022-08-02T08:32:12;27.20;99.90
7216;DHT22;3649;48.798;9.798;2022-08-02T08:34:42;27.20;99.90
7216;DHT22;3649;48.798;9.798;2022-08-02T08:37:10;27.30;99.90
7216;DHT22;3649;48.798;9.798;2022-08-02T08:39:48;27.30;99.90
7216;DHT22;3649;48.798;9.798;2022-08-02T08:42:27;27.40;99.90
7216;DHT22;3649;48.798;9.798;2022-08-02T08:44:55;27.50;99.90
7216;DHT22;3649;48.798;9.798;2022-08-02T08:47:46;27.50;99.90
7216;DHT22;3649;48.798;9.798;2022-08-02T08:50:17;27.40;99.90
7216;DHT22;3649;48.798;9.798;2022-08-02T08:53:01;27.50;99.90
7216;DHT22;3649;48.798;9.798;2022-08-02T08:55:30;27.50;99.90
7216;DHT22;3649;48.798;9.798;2022-08-02T08:57:59;27.40;99.90
7216;DHT22;3649;48.798;9.798;2022-08-02T09:00:27;27.40;99.90
7216;DHT22;3649;48.798;9.798;2022-08-02T09:02:55;27.50;99.90
7216;DHT22;3649;48.798;9.798;2022-08-02T09:05:23;27.50;99.90
7216;DHT22;3649;48.798;9.798;2022-08-02T09:07:52;27.50;99.90
7216;DHT22;3649;48.798;9.798;2022-08-02T09:10:42;27.50;99.90
7216;DHT22;3649;48.798;9.798;2022-08-02T09:13:14;27.50;99.90
7216;DHT22;3649;48.798;9.798;2022-08-02T09:16:04;27.50;99.90
7216;DHT22;3649;48.798;9.798;2022-08-02T09:18:41;27.60;99.90
7216;DHT22;3649;48.798;9.798;2022-08-02T09:21:14;27.60;99.90
7216;DHT22;3649;48.798;9.798;2022-08-02T09:23:46;27.60;99.90
7216;DHT22;3649;48.798;9.798;2022-08-02T09:26:18;27.60;99.90
7216;DHT22;3649;48.798;9.798;2022-08-02T09:28:49;27.60;99.90
7216;DHT22;3649;48.798;9.798;2022-08-02T09:31:19;27.50;99.90
7216;DHT22;3649;48.798;9.798;2022-08-02T09:33:58;27.60;99.90
7216;DHT22;3649;48.798;9.798;2022-08-02T09:36:29;27.60;99.90
7216;DHT22;3649;48.798;9.798;2022-08-02T09:39:04;27.60;99.90
7216;DHT22;3649;48.798;9.798;2022-08-02T09:41:34;27.50;99.90
7216;DHT22;3649;48.798;9.798;2022-08-02T09:44:04;27.50;99.90
7216;DHT22;3649;48.798;9.798;2022-08-02T09:46:38;27.50;99.90
7216;DHT22;3649;48.798;9.798;2022-08-02T09:49:07;27.50;99.90
7216;DHT22;3649;48.798;9.798;2022-08-02T09:51:38;27.50;99.90
7216;DHT22;3649;48.798;9.798;2022-08-02T09:54:10;27.40;99.90
7216;DHT22;3649;48.798;9.798;2022-08-02T09:57:00;27.40;99.90
7216;DHT22;3649;48.798;9.798;2022-08-02T09:59:28;27.40;99.90
7216;DHT22;3649;48.798;9.798;2022-08-02T10:01:57;27.40;99.90
7216;DHT22;3649;48.798;9.798;2022-08-02T10:04:31;27.40;99.90
7216;DHT22;3649;48.798;9.798;2022-08-02T10:07:19;27.40;99.90
7216;DHT22;3649;48.798;9.798;2022-08-02T10:09:48;27.40;99.90
7216;DHT22;3649;48.798;9.798;2022-08-02T10:12:15;27.40;99.90
7216;DHT22;3649;48.798;9.798;2022-08-02T10:14:42;27.40;99.90
7216;DHT22;3649;48.798;9.798;2022-08-02T10:17:10;27.40;99.90
7216;DHT22;3649;48.798;9.798;2022-08-02T10:19:37;27.50;99.90
7216;DHT22;3649;48.798;9.798;2022-08-02T10:22:25;27.50;99.90
7216;DHT22;3649;48.798;9.798;2022-08-02T10:24:52;27.50;99.90
7216;DHT22;3649;48.798;9.798;2022-08-02T10:27:20;27.50;99.90
7216;DHT22;3649;48.798;9.798;2022-08-02T10:29:50;27.40;99.90
7216;DHT22;3649;48.798;9.798;2022-08-02T10:32:26;27.40;99.90
7216;DHT22;3649;48.798;9.798;2022-08-02T10:35:11;27.40;99.90
7216;DHT22;3649;48.798;9.798;2022-08-02T10:37:53;27.50;99.90
7216;DHT22;3649;48.798;9.798;2022-08-02T10:40:22;27.40;99.90
7216;DHT22;3649;48.798;9.798;2022-08-02T10:42:53;27.40;99.90
7216;DHT22;3649;48.798;9.798;2022-08-02T10:45:22;27.30;99.90
7216;DHT22;3649;48.798;9.798;2022-08-02T10:48:10;27.40;99.90
7216;DHT22;3649;48.798;9.798;2022-08-02T10:53:30;27.40;99.90
7216;DHT22;3649;48.798;9.798;2022-08-02T10:56:00;27.40;99.90
7216;DHT22;3649;48.798;9.798;2022-08-02T10:58:30;27.40;99.90
7216;DHT22;3649;48.798;9.798;2022-08-02T11:01:29;27.40;99.90
7216;DHT22;3649;48.798;9.798;2022-08-02T11:04:07;27.40;99.90
7216;DHT22;3649;48.798;9.798;2022-08-02T11:07:56;27.40;99.90
7216;DHT22;3649;48.798;9.798;2022-08-02T11:09:52;27.50;99.90
7216;DHT22;3649;48.798;9.798;2022-08-02T11:12:20;27.40;99.90
7216;DHT22;3649;48.798;9.798;2022-08-02T11:15:01;27.40;99.90
7216;DHT22;3649;48.798;9.798;2022-08-02T11:17:53;27.40;99.90
7216;DHT22;3649;48.798;9.798;2022-08-02T11:20:22;27.40;99.90
7216;DHT22;3649;48.798;9.798;2022-08-02T11:22:51;27.40;99.90
7216;DHT22;3649;48.798;9.798;2022-08-02T11:27:58;27.50;99.80
7216;DHT22;3649;48.798;9.798;2022-08-02T11:30:25;27.50;99.70
7216;DHT22;3649;48.798;9.798;2022-08-02T11:32:57;27.60;98.70
7216;DHT22;3649;48.798;9.798;2022-08-02T11:35:51;27.60;98.80
7216;DHT22;3649;48.798;9.798;2022-08-02T11:38:19;27.60;98.50
7216;DHT22;3649;48.798;9.798;2022-08-02T11:40:47;27.50;97.50
7216;DHT22;3649;48.798;9.798;2022-08-02T11:43:22;27.50;97.80
7216;DHT22;3649;48.798;9.798;2022-08-02T11:45:50;27.60;97.80
7216;DHT22;3649;48.798;9.798;2022-08-02T11:48:35;27.60;97.70
7216;DHT22;3649;48.798;9.798;2022-08-02T11:51:14;27.70;97.90
7216;DHT22;3649;48.798;9.798;2022-08-02T11:53:49;27.80;98.00
7216;DHT22;3649;48.798;9.798;2022-08-02T11:56:24;27.70;97.60
7216;DHT22;3649;48.798;9.798;2022-08-02T11:59:03;27.80;97.80
7216;DHT22;3649;48.798;9.798;2022-08-02T12:01:32;27.80;98.00
7216;DHT22;3649;48.798;9.798;2022-08-02T12:04:10;27.80;98.10
7216;DHT22;3649;48.798;9.798;2022-08-02T12:06:38;27.80;98.10
7216;DHT22;3649;48.798;9.798;2022-08-02T12:09:08;27.80;97.80
7216;DHT22;3649;48.798;9.798;2022-08-02T12:11:48;27.90;97.20
7216;DHT22;3649;48.798;9.798;2022-08-02T12:14:16;27.90;96.70
7216;DHT22;3649;48.798;9.798;2022-08-02T12:16:44;28.00;96.00
7216;DHT22;3649;48.798;9.798;2022-08-02T12:19:29;28.10;96.80
7216;DHT22;3649;48.798;9.798;2022-08-02T12:22:17;28.00;96.50
7216;DHT22;3649;48.798;9.798;2022-08-02T12:24:51;28.10;96.60
7216;DHT22;3649;48.798;9.798;2022-08-02T12:32:32;28.10;96.30
7216;DHT22;3649;48.798;9.798;2022-08-02T12:35:17;28.20;95.80
7216;DHT22;3649;48.798;9.798;2022-08-02T12:37:52;28.20;95.70
7216;DHT22;3649;48.798;9.798;2022-08-02T12:40:28;28.30;94.40
7216;DHT22;3649;48.798;9.798;2022-08-02T12:42:56;28.40;95.00
7216;DHT22;3649;48.798;9.798;2022-08-02T12:45:27;28.30;94.50
7216;DHT22;3649;48.798;9.798;2022-08-02T12:48:07;28.40;93.20
7216;DHT22;3649;48.798;9.798;2022-08-02T12:50:34;28.50;92.40
7216;DHT22;3649;48.798;9.798;2022-08-02T12:55:35;28.50;93.30
7216;DHT22;3649;48.798;9.798;2022-08-02T12:58:26;28.40;91.80
7216;DHT22;3649;48.798;9.798;2022-08-02T13:00:56;28.50;91.00
7216;DHT22;3649;48.798;9.798;2022-08-02T13:03:23;28.40;91.70
7216;DHT22;3649;48.798;9.798;2022-08-02T13:06:10;28.40;91.80
7216;DHT22;3649;48.798;9.798;2022-08-02T13:08:57;28.30;90.50
7216;DHT22;3649;48.798;9.798;2022-08-02T13:11:25;28.40;91.00
7216;DHT22;3649;48.798;9.798;2022-08-02T13:13:53;28.30;91.70
7216;DHT22;3649;48.798;9.798;2022-08-02T13:16:20;28.30;92.50
7216;DHT22;3649;48.798;9.798;2022-08-02T13:18:57;28.20;92.40
7216;DHT22;3649;48.798;9.798;2022-08-02T13:21:23;28.20;91.20
7216;DHT22;3649;48.798;9.798;2022-08-02T13:24:11;28.30;87.40
7216;DHT22;3649;48.798;9.798;2022-08-02T13:27:01;28.30;90.70
7216;DHT22;3649;48.798;9.798;2022-08-02T13:29:34;28.30;90.90
7216;DHT22;3649;48.798;9.798;2022-08-02T13:32:01;28.40;90.60
7216;DHT22;3649;48.798;9.798;2022-08-02T13:34:28;28.50;90.80
7216;DHT22;3649;48.798;9.798;2022-08-02T13:36:55;28.40;90.10
7216;DHT22;3649;48.798;9.798;2022-08-02T13:39:22;28.50;90.40
7216;DHT22;3649;48.798;9.798;2022-08-02T13:41:49;28.50;90.80
7216;DHT22;3649;48.798;9.798;2022-08-02T13:44:16;28.50;91.10
7216;DHT22;3649;48.798;9.798;2022-08-02T13:46:44;28.50;90.00
7216;DHT22;3649;48.798;9.798;2022-08-02T13:49:15;28.60;90.40
7216;DHT22;3649;48.798;9.798;2022-08-02T13:51:46;28.50;90.90
7216;DHT22;3649;48.798;9.798;2022-08-02T13:54:14;28.60;86.80
7216;DHT22;3649;48.798;9.798;2022-08-02T13:56:42;28.70;89.50
7216;DHT22;3649;48.798;9.798;2022-08-02T13:59:09;28.70;90.20
7216;DHT22;3649;48.798;9.798;2022-08-02T14:01:56;28.60;90.00
7216;DHT22;3649;48.798;9.798;2022-08-02T14:04:25;28.70;88.00
7216;DHT22;3649;48.798;9.798;2022-08-02T14:06:52;28.80;90.20
7216;DHT22;3649;48.798;9.798;2022-08-02T14:09:19;28.80;89.40
7216;DHT22;3649;48.798;9.798;2022-08-02T14:11:47;28.90;90.30
7216;DHT22;3649;48.798;9.798;2022-08-02T14:14:14;28.90;91.10
7216;DHT22;3649;48.798;9.798;2022-08-02T14:16:43;28.90;89.30
7216;DHT22;3649;48.798;9.798;2022-08-02T14:19:11;29.00;90.20
7216;DHT22;3649;48.798;9.798;2022-08-02T14:21:46;29.00;89.80
7216;DHT22;3649;48.798;9.798;2022-08-02T14:24:15;29.00;90.10
7216;DHT22;3649;48.798;9.798;2022-08-02T14:26:43;29.00;89.70
7216;DHT22;3649;48.798;9.798;2022-08-02T14:29:12;28.90;90.30
7216;DHT22;3649;48.798;9.798;2022-08-02T14:31:39;28.90;90.10
7216;DHT22;3649;48.798;9.798;2022-08-02T14:34:12;28.90;90.30
7216;DHT22;3649;48.798;9.798;2022-08-02T14:36:39;28.90;89.70
7216;DHT22;3649;48.798;9.798;2022-08-02T14:39:06;28.90;90.00
7216;DHT22;3649;48.798;9.798;2022-08-02T14:41:33;29.00;87.90
7216;DHT22;3649;48.798;9.798;2022-08-02T14:44:22;29.00;89.60
7216;DHT22;3649;48.798;9.798;2022-08-02T14:46:49;29.00;90.00
7216;DHT22;3649;48.798;9.798;2022-08-02T14:49:19;28.90;90.20
7216;DHT22;3649;48.798;9.798;2022-08-02T14:51:55;28.80;90.70
7216;DHT22;3649;48.798;9.798;2022-08-02T14:54:23;28.80;90.20
7216;DHT22;3649;48.798;9.798;2022-08-02T14:57:01;28.80;89.40
7216;DHT22;3649;48.798;9.798;2022-08-02T14:59:29;28.90;90.10
7216;DHT22;3649;48.798;9.798;2022-08-02T15:01:56;28.80;90.60
7216;DHT22;3649;48.798;9.798;2022-08-02T15:04:24;28.90;90.80
7216;DHT22;3649;48.798;9.798;2022-08-02T15:06:51;28.90;89.70
7216;DHT22;3649;48.798;9.798;2022-08-02T15:09:18;29.00;90.40
7216;DHT22;3649;48.798;9.798;2022-08-02T15:11:46;28.90;90.80
7216;DHT22;3649;48.798;9.798;2022-08-02T15:14:15;28.90;90.70
7216;DHT22;3649;48.798;9.798;2022-08-02T15:16:52;29.00;86.50
7216;DHT22;3649;48.798;9.798;2022-08-02T15:19:26;29.10;87.10
7216;DHT22;3649;48.798;9.798;2022-08-02T15:22:13;29.10;89.10
7216;DHT22;3649;48.798;9.798;2022-08-02T15:24:43;29.10;89.80
7216;DHT22;3649;48.798;9.798;2022-08-02T15:27:10;29.10;90.30
7216;DHT22;3649;48.798;9.798;2022-08-02T15:29:40;29.10;88.20
7216;DHT22;3649;48.798;9.798;2022-08-02T15:32:07;29.10;89.90
7216;DHT22;3649;48.798;9.798;2022-08-02T15:34:35;29.00;90.10
7216;DHT22;3649;48.798;9.798;2022-08-02T15:37:02;29.00;90.10
7216;DHT22;3649;48.798;9.798;2022-08-02T15:39:29;28.90;89.20
7216;DHT22;3649;48.798;9.798;2022-08-02T15:41:56;28.90;89.10
7216;DHT22;3649;48.798;9.798;2022-08-02T15:44:23;28.90;89.50
7216;DHT22;3649;48.798;9.798;2022-08-02T15:46:50;28.90;90.00
7216;DHT22;3649;48.798;9.798;2022-08-02T15:49:19;28.90;89.70
7216;DHT22;3649;48.798;9.798;2022-08-02T15:51:50;29.00;89.90
7216;DHT22;3649;48.798;9.798;2022-08-02T15:54:17;28.90;90.50
7216;DHT22;3649;48.798;9.798;2022-08-02T15:56:45;28.90;90.30
7216;DHT22;3649;48.798;9.798;2022-08-02T15:59:12;28.80;90.70
7216;DHT22;3649;48.798;9.798;2022-08-02T16:01:39;28.80;90.50
7216;DHT22;3649;48.798;9.798;2022-08-02T16:04:13;28.80;89.30
7216;DHT22;3649;48.798;9.798;2022-08-02T16:06:40;28.70;89.90
7216;DHT22;3649;48.798;9.798;2022-08-02T16:09:07;28.70;90.00
7216;DHT22;3649;48.798;9.798;2022-08-02T16:11:34;28.70;90.30
7216;DHT22;3649;48.798;9.798;2022-08-02T16:14:01;28.70;89.60
7216;DHT22;3649;48.798;9.798;2022-08-02T16:16:30;28.70;89.40
7216;DHT22;3649;48.798;9.798;2022-08-02T16:18:57;28.70;88.80
7216;DHT22;3649;48.798;9.798;2022-08-02T16:21:24;28.70;89.80
7216;DHT22;3649;48.798;9.798;2022-08-02T16:23:53;28.70;86.30
7216;DHT22;3649;48.798;9.798;2022-08-02T16:26:30;28.80;87.70
7216;DHT22;3649;48.798;9.798;2022-08-02T16:28:58;28.90;88.00
7216;DHT22;3649;48.798;9.798;2022-08-02T16:31:25;28.90;87.70
7216;DHT22;3649;48.798;9.798;2022-08-02T16:33:52;28.90;89.00
7216;DHT22;3649;48.798;9.798;2022-08-02T16:36:23;28.80;86.30
7216;DHT22;3649;48.798;9.798;2022-08-02T16:38:52;28.80;88.00
7216;DHT22;3649;48.798;9.798;2022-08-02T16:41:20;28.80;88.70
7216;DHT22;3649;48.798;9.798;2022-08-02T16:43:47;28.70;88.40
7216;DHT22;3649;48.798;9.798;2022-08-02T16:46:15;28.70;89.20
7216;DHT22;3649;48.798;9.798;2022-08-02T16:48:44;28.70;88.10
7216;DHT22;3649;48.798;9.798;2022-08-02T16:51:17;28.70;86.70
7216;DHT22;3649;48.798;9.798;2022-08-02T16:53:45;28.80;88.60
7216;DHT22;3649;48.798;9.798;2022-08-02T16:56:27;28.80;87.80
7216;DHT22;3649;48.798;9.798;2022-08-02T16:58:54;28.70;88.20
7216;DHT22;3649;48.798;9.798;2022-08-02T17:01:26;28.70;89.00